createdAt,value
2022-09-18T00:00:59.413Z,98357.94
2022-09-18T00:03:28.574Z,98368.06
2022-09-18T00:05:55.043Z,98367.44
2022-09-18T00:08:21.637Z,98344.63
2022-09-18T00:10:48.161Z,98357.75
2022-09-18T00:13:15.158Z,98330.75
2022-09-18T00:15:42.152Z,98365.75
2022-09-18T00:18:08.882Z,98366.28
2022-09-18T00:20:36.957Z,98376.72
2022-09-18T00:23:04.071Z,98374.38
2022-09-18T00:25:32.252Z,98359.81
2022-09-18T00:27:58.871Z,98359.41
2022-09-18T00:30:25.389Z,98365.84
2022-09-18T00:32:51.901Z,98366.00
2022-09-18T00:35:18.380Z,98372.53
2022-09-18T00:37:44.868Z,98378.75
2022-09-18T00:40:11.459Z,98366.00
2022-09-18T00:42:38.013Z,98368.44
2022-09-18T00:45:04.820Z,98360.78
2022-09-18T00:47:45.832Z,98363.06
2022-09-18T00:50:18.531Z,98364.03
2022-09-18T00:52:50.646Z,98375.38
2022-09-18T00:55:20.907Z,98381.22
2022-09-18T00:57:51.651Z,98374.72
2022-09-18T01:00:18.263Z,98367.69
2022-09-18T01:02:46.658Z,98362.53
2022-09-18T01:05:14.866Z,98373.03
2022-09-18T01:07:50.621Z,98372.91
2022-09-18T01:10:37.592Z,98360.44
2022-09-18T01:13:39.426Z,98366.13
2022-09-18T01:16:24.466Z,98366.38
2022-09-18T01:19:11.289Z,98369.38
2022-09-18T01:22:11.712Z,98358.97
2022-09-18T01:24:50.357Z,98361.06
2022-09-18T01:27:33.372Z,98359.16
2022-09-18T01:29:59.804Z,98359.81
2022-09-18T01:32:34.450Z,98352.50
2022-09-18T01:38:11.376Z,98356.03
2022-09-18T01:41:12.604Z,98366.16
2022-09-18T01:43:41.002Z,98360.63
2022-09-18T01:46:14.023Z,98353.97
2022-09-18T01:48:58.437Z,98364.38
2022-09-18T01:51:52.840Z,98364.91
2022-09-18T01:54:24.838Z,98362.41
2022-09-18T01:56:57.217Z,98362.41
2022-09-18T01:59:34.485Z,98381.97
2022-09-18T02:02:05.106Z,98389.75
2022-09-18T02:04:36.452Z,98358.97
2022-09-18T02:07:25.617Z,98379.94
2022-09-18T02:09:52.299Z,98378.69
2022-09-18T02:12:23.285Z,98366.50
2022-09-18T02:14:55.537Z,98380.50
2022-09-18T02:17:29.133Z,98361.50
2022-09-18T02:20:24.680Z,98388.00
2022-09-18T02:22:54.738Z,98375.66
2022-09-18T02:25:27.450Z,98387.31
2022-09-18T02:27:55.983Z,98375.66
2022-09-18T02:30:23.814Z,98367.56
2022-09-18T02:32:55.605Z,98373.97
2022-09-18T02:35:25.876Z,98372.59
2022-09-18T02:38:03.009Z,98367.31
2022-09-18T02:40:50.214Z,98366.06
2022-09-18T02:43:58.444Z,98376.44
2022-09-18T02:46:53.804Z,98360.69
2022-09-18T02:49:28.199Z,98367.03
2022-09-18T02:52:04.673Z,98360.66
2022-09-18T02:54:50.187Z,98368.69
2022-09-18T02:57:25.237Z,98361.22
2022-09-18T02:59:56.845Z,98369.13
2022-09-18T03:02:25.166Z,98349.56
2022-09-18T03:04:52.317Z,98369.84
2022-09-18T03:07:18.977Z,98359.41
2022-09-18T03:09:45.549Z,98351.50
2022-09-18T03:12:12.314Z,98368.69
2022-09-18T03:14:39.123Z,98377.03
2022-09-18T03:17:05.950Z,98348.88
2022-09-18T03:19:32.641Z,98359.97
2022-09-18T03:21:59.134Z,98349.84
2022-09-18T03:24:25.717Z,98356.06
2022-09-18T03:26:53.084Z,98361.50
2022-09-18T03:29:19.582Z,98357.03
2022-09-18T03:31:46.235Z,98330.13
2022-09-18T03:34:12.795Z,98355.63
2022-09-18T03:36:39.303Z,98332.88
2022-09-18T03:39:05.876Z,98339.84
2022-09-18T03:41:32.478Z,98342.19
2022-09-18T03:43:59.056Z,98336.63
2022-09-18T03:46:25.674Z,98345.75
2022-09-18T03:48:53.112Z,98361.34
2022-09-18T03:51:20.398Z,98338.97
2022-09-18T03:53:47.957Z,98365.06
2022-09-18T03:56:15.345Z,98371.03
2022-09-18T03:58:42.012Z,98365.44
2022-09-18T04:01:09.023Z,98368.06
2022-09-18T04:03:36.029Z,98366.16
2022-09-18T04:06:02.817Z,98371.25
2022-09-18T04:08:29.626Z,98363.50
2022-09-18T04:10:56.288Z,98359.69
2022-09-18T04:13:22.852Z,98362.06
2022-09-18T04:15:50.366Z,98360.53
2022-09-18T04:18:18.234Z,98356.78
2022-09-18T04:20:45.893Z,98344.53
2022-09-18T04:23:14.389Z,98373.03
2022-09-18T04:25:43.038Z,98387.44
2022-09-18T04:28:10.926Z,98360.78
2022-09-18T04:30:37.705Z,98360.69
2022-09-18T04:33:05.002Z,98375.41
2022-09-18T04:35:31.643Z,98380.25
2022-09-18T04:37:58.171Z,98379.91
2022-09-18T04:40:24.758Z,98366.28
2022-09-18T04:42:51.273Z,98368.06
2022-09-18T04:45:17.805Z,98381.78
2022-09-18T04:47:46.064Z,98373.69
2022-09-18T04:50:12.745Z,98386.13
2022-09-18T04:52:39.236Z,98380.72
2022-09-18T04:55:06.232Z,98368.88
2022-09-18T04:57:32.795Z,98369.16
2022-09-18T04:59:59.284Z,98372.28
2022-09-18T05:02:25.834Z,98379.38
2022-09-18T05:04:52.455Z,98380.63
2022-09-18T05:07:18.979Z,98371.28
2022-09-18T05:09:45.890Z,98357.13
2022-09-18T05:12:12.425Z,98380.25
2022-09-18T05:14:38.958Z,98360.34
2022-09-18T05:17:05.959Z,98384.50
2022-09-18T05:19:32.507Z,98384.66
2022-09-18T05:21:58.982Z,98381.69
2022-09-18T05:24:25.472Z,98378.00
2022-09-18T05:26:51.988Z,98362.97
2022-09-18T05:29:18.508Z,98385.72
2022-09-18T05:31:45.013Z,98367.84
2022-09-18T05:34:11.536Z,98391.00
2022-09-18T05:36:38.022Z,98404.16
2022-09-18T05:39:04.740Z,98384.47
2022-09-18T05:41:31.234Z,98395.75
2022-09-18T05:43:57.712Z,98391.75
2022-09-18T05:46:24.238Z,98389.84
2022-09-18T05:48:51.088Z,98398.44
2022-09-18T05:51:20.752Z,98398.75
2022-09-18T05:53:48.579Z,98407.75
2022-09-18T05:56:16.675Z,98396.19
2022-09-18T05:58:43.238Z,98413.38
2022-09-18T06:01:09.949Z,98421.78
2022-09-18T06:03:36.468Z,98395.22
2022-09-18T06:06:03.028Z,98421.94
2022-09-18T06:08:29.528Z,98408.50
2022-09-18T06:11:00.399Z,98420.38
2022-09-18T06:13:26.893Z,98400.34
2022-09-18T06:15:53.577Z,98391.53
2022-09-18T06:18:20.442Z,98412.25
2022-09-18T06:20:57.993Z,98416.13
2022-09-18T06:23:26.207Z,98410.81
2022-09-18T06:25:59.474Z,98419.19
2022-09-18T06:28:26.470Z,98409.53
2022-09-18T06:30:53.305Z,98418.56
2022-09-18T06:33:19.883Z,98412.47
2022-09-18T06:35:49.137Z,98420.97
2022-09-18T06:38:16.467Z,98412.16
2022-09-18T06:40:50.664Z,98413.97
2022-09-18T06:43:17.625Z,98410.31
2022-09-18T06:45:44.158Z,98403.13
2022-09-18T06:48:10.663Z,98402.56
2022-09-18T06:50:37.136Z,98424.50
2022-09-18T06:53:12.287Z,98423.66
2022-09-18T06:55:39.333Z,98416.13
2022-09-18T06:58:05.953Z,98413.81
2022-09-18T07:00:32.549Z,98417.81
2022-09-18T07:03:01.867Z,98396.56
2022-09-18T07:05:30.774Z,98422.22
2022-09-18T07:07:57.759Z,98422.63
2022-09-18T07:10:24.993Z,98411.97
2022-09-18T07:12:59.276Z,98402.41
2022-09-18T07:15:27.036Z,98412.13
2022-09-18T07:18:01.376Z,98411.06
2022-09-18T07:20:29.460Z,98386.75
2022-09-18T07:22:58.489Z,98381.41
2022-09-18T07:25:27.120Z,98399.00
2022-09-18T07:27:54.115Z,98398.91
2022-09-18T07:30:21.616Z,98400.03
2022-09-18T07:32:49.048Z,98368.94
2022-09-18T07:35:16.026Z,98404.00
2022-09-18T07:37:42.578Z,98397.19
2022-09-18T07:40:12.253Z,98406.50
2022-09-18T07:42:39.992Z,98398.75
2022-09-18T07:45:06.986Z,98398.97
2022-09-18T07:47:33.517Z,98402.50
2022-09-18T07:50:00.205Z,98402.34
2022-09-18T07:52:29.062Z,98381.13
2022-09-18T07:54:55.661Z,98387.38
2022-09-18T07:57:22.206Z,98396.28
2022-09-18T07:59:48.683Z,98398.50
2022-09-18T08:02:15.314Z,98391.50
2022-09-18T08:04:41.937Z,98381.06
2022-09-18T08:07:08.784Z,98393.63
2022-09-18T08:09:35.324Z,98371.63
2022-09-18T08:12:03.518Z,98382.63
2022-09-18T08:14:30.239Z,98381.81
2022-09-18T08:16:57.895Z,98385.00
2022-09-18T08:19:24.449Z,98364.66
2022-09-18T08:21:50.987Z,98382.84
2022-09-18T08:24:17.862Z,98373.81
2022-09-18T08:26:44.882Z,98366.03
2022-09-18T08:29:18.772Z,98395.53
2022-09-18T08:31:48.612Z,98379.41
2022-09-18T08:34:15.177Z,98390.13
2022-09-18T08:36:41.694Z,98387.91
2022-09-18T08:39:08.365Z,98375.72
2022-09-18T08:41:44.193Z,98391.50
2022-09-18T08:44:18.178Z,98389.06
2022-09-18T08:47:09.477Z,98390.84
2022-09-18T08:49:53.425Z,98393.28
2022-09-18T08:52:22.987Z,98381.09
2022-09-18T08:55:14.467Z,98398.97
2022-09-18T08:57:46.144Z,98399.13
2022-09-18T09:00:32.147Z,98390.72
2022-09-18T09:03:08.582Z,98391.19
2022-09-18T09:05:45.321Z,98395.31
2022-09-18T09:08:20.902Z,98392.16
2022-09-18T09:10:55.944Z,98396.25
2022-09-18T09:13:47.185Z,98392.25
2022-09-18T09:16:23.942Z,98389.00
2022-09-18T09:19:01.224Z,98379.66
2022-09-18T09:21:45.797Z,98390.75
2022-09-18T09:24:25.288Z,98387.94
2022-09-18T09:26:55.131Z,98372.88
2022-09-18T09:29:30.659Z,98390.50
2022-09-18T09:32:12.883Z,98372.91
2022-09-18T09:34:50.796Z,98383.06
2022-09-18T09:37:23.994Z,98376.66
2022-09-18T09:39:59.521Z,98369.13
2022-09-18T09:42:39.250Z,98372.19
2022-09-18T09:45:18.000Z,98382.06
2022-09-18T09:47:52.205Z,98365.06
2022-09-18T09:50:37.213Z,98378.06
2022-09-18T09:53:09.115Z,98385.88
2022-09-18T09:56:10.503Z,98366.81
2022-09-18T09:58:50.670Z,98371.25
2022-09-18T10:01:41.033Z,98354.78
2022-09-18T10:04:38.033Z,98365.53
2022-09-18T10:07:12.729Z,98372.84
2022-09-18T10:09:54.426Z,98370.28
2022-09-18T10:12:47.926Z,98367.13
2022-09-18T10:15:19.699Z,98365.16
2022-09-18T10:17:51.052Z,98369.16
2022-09-18T10:20:23.854Z,98364.13
2022-09-18T10:22:50.395Z,98368.59
2022-09-18T10:25:29.266Z,98368.31
2022-09-18T10:27:55.910Z,98366.06
2022-09-18T10:30:22.527Z,98360.88
2022-09-18T10:32:49.334Z,98352.84
2022-09-18T10:35:31.181Z,98370.34
2022-09-18T10:37:58.331Z,98365.31
2022-09-18T10:40:40.657Z,98358.66
2022-09-18T10:43:17.058Z,98372.06
2022-09-18T10:45:52.372Z,98370.81
2022-09-18T10:48:23.532Z,98369.66
2022-09-18T10:50:57.344Z,98361.94
2022-09-18T10:53:35.121Z,98358.91
2022-09-18T10:56:20.106Z,98353.34
2022-09-18T10:58:46.808Z,98350.88
2022-09-18T11:01:15.363Z,98343.25
2022-09-18T11:04:15.361Z,98346.53
2022-09-18T11:06:45.713Z,98332.09
2022-09-18T11:09:18.543Z,98334.53
2022-09-18T11:11:51.282Z,98330.19
2022-09-18T11:14:26.320Z,98339.38
2022-09-18T11:16:59.879Z,98342.16
2022-09-18T11:19:31.711Z,98340.53
2022-09-18T11:22:02.791Z,98335.63
2022-09-18T11:24:34.822Z,98343.00
2022-09-18T11:27:25.119Z,98333.34
2022-09-18T11:29:51.660Z,98299.06
2022-09-18T11:32:30.540Z,98333.84
2022-09-18T11:35:02.015Z,98324.47
2022-09-18T11:37:37.446Z,98319.19
2022-09-18T11:40:15.398Z,98332.25
2022-09-18T11:42:44.982Z,98336.63
2022-09-18T11:45:27.000Z,98325.91
2022-09-18T11:48:16.166Z,98325.00
2022-09-18T11:50:43.211Z,98328.28
2022-09-18T11:53:27.895Z,98311.50
2022-09-18T11:56:08.113Z,98309.75
2022-09-18T11:59:00.405Z,98313.84
2022-09-18T12:01:49.097Z,98310.88
2022-09-18T12:04:20.951Z,98315.72
2022-09-18T12:07:00.047Z,98309.06
2022-09-18T12:09:58.301Z,98310.78
2022-09-18T12:12:34.574Z,98312.94
2022-09-18T12:15:09.072Z,98312.41
2022-09-18T12:17:50.481Z,98315.31
2022-09-18T12:20:28.223Z,98307.69
2022-09-18T12:23:02.748Z,98304.75
2022-09-18T12:25:43.644Z,98309.06
2022-09-18T12:28:23.342Z,98299.41
2022-09-18T12:31:06.381Z,98289.31
2022-09-18T12:33:50.925Z,98299.03
2022-09-18T12:37:05.127Z,98300.41
2022-09-18T12:39:50.832Z,98292.13
2022-09-18T12:42:32.179Z,98285.31
2022-09-18T12:44:58.610Z,98292.31
2022-09-18T12:48:04.012Z,98289.16
2022-09-18T12:50:55.040Z,98287.19
2022-09-18T12:53:33.531Z,98281.13
2022-09-18T12:56:03.084Z,98282.38
2022-09-18T12:58:35.532Z,98283.41
2022-09-18T13:01:14.928Z,98285.34
2022-09-18T13:03:43.879Z,98283.63
2022-09-18T13:06:16.254Z,98271.38
2022-09-18T13:08:46.359Z,98273.53
2022-09-18T13:11:19.818Z,98272.31
2022-09-18T13:13:57.194Z,98270.38
2022-09-18T13:16:41.118Z,98261.94
2022-09-18T13:19:26.077Z,98255.16
2022-09-18T13:21:53.871Z,98251.94
2022-09-18T13:24:25.137Z,98243.59
2022-09-18T13:26:52.646Z,98251.75
2022-09-18T13:29:49.965Z,98245.41
2022-09-18T13:32:21.320Z,98239.19
2022-09-18T13:35:19.698Z,98234.84
2022-09-18T13:37:47.787Z,98239.88
2022-09-18T13:40:37.151Z,98225.81
2022-09-18T13:43:15.500Z,98237.22
2022-09-18T13:45:42.058Z,98214.53
2022-09-18T13:48:26.277Z,98225.91
2022-09-18T13:51:02.096Z,98227.09
2022-09-18T13:53:43.492Z,98225.50
2022-09-18T13:56:15.176Z,98228.25
2022-09-18T13:58:59.000Z,98211.63
2022-09-18T14:01:40.625Z,98222.03
2022-09-18T14:04:44.367Z,98214.50
2022-09-18T14:07:17.098Z,98215.25
2022-09-18T14:10:03.023Z,98222.81
2022-09-18T14:12:34.355Z,98222.31
2022-09-18T14:15:21.000Z,98217.31
2022-09-18T14:18:06.743Z,98203.72
2022-09-18T14:20:34.370Z,98210.31
2022-09-18T14:23:35.531Z,98209.19
2022-09-18T14:26:07.993Z,98214.03
2022-09-18T14:28:35.864Z,98209.91
2022-09-18T14:31:28.251Z,98199.94
2022-09-18T14:34:00.841Z,98189.31
2022-09-18T14:36:27.369Z,98197.72
2022-09-18T14:38:53.964Z,98192.34
2022-09-18T14:41:28.610Z,98202.19
2022-09-18T14:44:01.055Z,98206.75
2022-09-18T14:46:28.324Z,98196.78
2022-09-18T14:48:55.674Z,98195.72
2022-09-18T14:51:25.488Z,98200.09
2022-09-18T14:53:55.013Z,98195.19
2022-09-18T14:56:32.269Z,98188.91
2022-09-18T14:59:07.076Z,98177.75
2022-09-18T15:01:35.999Z,98177.75
2022-09-18T15:04:04.927Z,98188.38
2022-09-18T15:06:38.582Z,98198.44
2022-09-18T15:09:07.780Z,98189.13
2022-09-18T15:11:52.608Z,98184.19
2022-09-18T15:14:28.201Z,98187.44
2022-09-18T15:17:00.909Z,98188.97
2022-09-18T15:19:29.042Z,98184.00
2022-09-18T15:21:57.147Z,98183.00
2022-09-18T15:24:23.998Z,98186.66
2022-09-18T15:26:57.248Z,98179.34
2022-09-18T15:29:28.221Z,98182.03
2022-09-18T15:31:55.618Z,98177.75
2022-09-18T15:34:27.927Z,98169.34
2022-09-18T15:37:01.246Z,98173.31
2022-09-18T15:39:38.006Z,98177.16
2022-09-18T15:42:22.622Z,98177.19
2022-09-18T15:44:55.921Z,98180.63
2022-09-18T15:47:25.589Z,98182.97
2022-09-18T15:49:52.812Z,98172.44
2022-09-18T15:52:35.489Z,98176.53
2022-09-18T15:55:15.420Z,98185.59
2022-09-18T15:57:49.891Z,98176.09
2022-09-18T16:00:21.258Z,98184.09
2022-09-18T16:02:59.702Z,98174.16
2022-09-18T16:05:31.111Z,98182.75
2022-09-18T16:08:04.839Z,98181.72
2022-09-18T16:10:37.235Z,98181.13
2022-09-18T16:13:15.953Z,98174.19
2022-09-18T16:15:47.639Z,98171.78
2022-09-18T16:18:29.218Z,98168.97
2022-09-18T16:20:57.627Z,98169.75
2022-09-18T16:23:31.898Z,98173.13
2022-09-18T16:26:07.676Z,98167.53
2022-09-18T16:28:43.034Z,98151.03
2022-09-18T16:31:12.386Z,98170.19
2022-09-18T16:33:51.211Z,98174.50
2022-09-18T16:36:25.645Z,98160.56
2022-09-18T16:38:52.229Z,98150.56
2022-09-18T16:41:18.776Z,98168.06
2022-09-18T16:43:45.317Z,98173.13
2022-09-18T16:46:14.088Z,98169.22
2022-09-18T16:48:40.788Z,98167.34
2022-09-18T16:51:07.657Z,98175.50
2022-09-18T16:53:35.705Z,98173.63
2022-09-18T16:56:04.384Z,98172.72
2022-09-18T16:58:30.947Z,98170.56
2022-09-18T17:00:57.974Z,98172.75
2022-09-18T17:03:26.884Z,98162.72
2022-09-18T17:05:53.385Z,98161.50
2022-09-18T17:08:19.891Z,98169.22
2022-09-18T17:10:47.089Z,98165.03
2022-09-18T17:13:14.032Z,98182.28
2022-09-18T17:15:40.930Z,98175.69
2022-09-18T17:18:09.024Z,98177.56
2022-09-18T17:20:38.682Z,98174.84
2022-09-18T17:23:05.309Z,98158.72
2022-09-18T17:25:31.839Z,98186.09
2022-09-18T17:27:58.819Z,98160.88
2022-09-18T17:30:25.796Z,98173.84
2022-09-18T17:32:52.320Z,98175.50
2022-09-18T17:35:18.924Z,98176.91
2022-09-18T17:37:45.497Z,98158.81
2022-09-18T17:40:12.110Z,98180.19
2022-09-18T17:42:39.134Z,98184.13
2022-09-18T17:45:06.254Z,98185.31
2022-09-18T17:47:32.849Z,98164.25
2022-09-18T17:49:59.457Z,98178.28
2022-09-18T17:52:25.988Z,98181.69
2022-09-18T17:54:52.507Z,98173.28
2022-09-18T17:57:19.034Z,98188.13
2022-09-18T17:59:45.807Z,98167.56
2022-09-18T18:02:13.341Z,98171.50
2022-09-18T18:04:39.966Z,98186.13
2022-09-18T18:07:07.021Z,98196.84
2022-09-18T18:09:36.717Z,98189.19
2022-09-18T18:12:04.991Z,98198.88
2022-09-18T18:14:32.292Z,98200.50
2022-09-18T18:17:00.793Z,98196.97
2022-09-18T18:19:27.909Z,98205.53
2022-09-18T18:21:54.627Z,98190.66
2022-09-18T18:24:21.513Z,98213.50
2022-09-18T18:26:48.490Z,98202.91
2022-09-18T18:29:17.835Z,98222.25
2022-09-18T18:31:45.257Z,98208.00
2022-09-18T18:36:57.542Z,98228.56
2022-09-18T18:39:24.113Z,98210.78
2022-09-18T18:41:50.728Z,98218.34
2022-09-18T18:44:17.529Z,98239.72
2022-09-18T18:46:44.384Z,98224.16
2022-09-18T18:49:14.633Z,98222.59
2022-09-18T18:52:22.639Z,98237.97
2022-09-18T18:54:39.624Z,98230.44
2022-09-18T18:57:06.283Z,98240.50
2022-09-18T18:59:33.152Z,98230.78
2022-09-18T19:01:59.771Z,98267.25
2022-09-18T19:04:26.494Z,98257.06
2022-09-18T19:06:53.518Z,98267.75
2022-09-18T19:09:24.370Z,98244.00
2022-09-18T19:11:52.906Z,98272.84
2022-09-18T19:14:25.986Z,98264.41
2022-09-18T19:16:53.806Z,98270.03
2022-09-18T19:19:23.421Z,98265.63
2022-09-18T19:21:50.405Z,98268.69
2022-09-18T19:24:18.644Z,98274.97
2022-09-18T19:26:46.624Z,98267.72
2022-09-18T19:29:15.881Z,98276.72
2022-09-18T19:31:43.942Z,98271.47
2022-09-18T19:34:12.588Z,98254.25
2022-09-18T19:36:39.688Z,98267.31
2022-09-18T19:39:07.808Z,98289.28
2022-09-18T19:41:44.619Z,98292.69
2022-09-18T19:44:26.900Z,98295.16
2022-09-18T19:46:55.792Z,98300.06
2022-09-18T19:49:28.828Z,98288.03
2022-09-18T19:51:56.724Z,98276.59
2022-09-18T19:54:23.558Z,98276.59
2022-09-18T19:56:50.274Z,98279.00
2022-09-18T19:59:19.512Z,98288.63
2022-09-18T20:01:46.441Z,98299.94
2022-09-18T20:04:15.889Z,98292.91
2022-09-18T20:06:46.444Z,98290.50
2022-09-18T20:09:13.005Z,98301.69
2022-09-18T20:11:39.493Z,98274.72
2022-09-18T20:14:06.012Z,98296.31
2022-09-18T20:16:35.101Z,98310.31
2022-09-18T20:19:01.815Z,98278.56
2022-09-18T20:21:30.895Z,98276.13
2022-09-18T20:23:59.320Z,98312.59
2022-09-18T20:26:26.645Z,98294.06
2022-09-18T20:28:53.562Z,98308.31
2022-09-18T20:31:20.921Z,98310.34
2022-09-18T20:33:47.613Z,98290.53
2022-09-18T20:36:14.279Z,98317.41
2022-09-18T20:38:41.954Z,98314.78
2022-09-18T20:41:13.480Z,98298.09
2022-09-18T20:43:41.851Z,98294.03
2022-09-18T20:46:17.932Z,98318.94
2022-09-18T20:48:53.021Z,98317.28
2022-09-18T20:51:19.880Z,98298.31
2022-09-18T20:53:46.534Z,98306.66
2022-09-18T20:56:14.758Z,98304.47
2022-09-18T20:58:44.848Z,98317.72
2022-09-18T21:01:13.895Z,98307.59
2022-09-18T21:03:45.055Z,98304.81
2022-09-18T21:06:22.781Z,98303.97
2022-09-18T21:08:53.519Z,98292.97
2022-09-18T21:11:41.215Z,98308.91
2022-09-18T21:14:09.938Z,98303.94
2022-09-18T21:16:42.878Z,98307.75
2022-09-18T21:19:16.127Z,98306.78
2022-09-18T21:21:42.840Z,98299.78
2022-09-18T21:24:09.572Z,98294.00
2022-09-18T21:26:37.820Z,98300.94
2022-09-18T21:29:26.164Z,98289.38
2022-09-18T21:31:55.345Z,98294.34
2022-09-18T21:34:26.623Z,98301.16
2022-09-18T21:37:00.084Z,98291.41
2022-09-18T21:39:30.532Z,98310.13
2022-09-18T21:41:58.712Z,98304.31
2022-09-18T21:44:27.730Z,98295.88
2022-09-18T21:47:00.250Z,98280.47
2022-09-18T21:49:29.050Z,98304.16
2022-09-18T21:51:58.067Z,98272.50
2022-09-18T21:54:24.713Z,98297.38
2022-09-18T21:56:51.986Z,98305.00
2022-09-18T21:59:25.412Z,98310.94
2022-09-18T22:01:54.759Z,98295.84
2022-09-18T22:04:26.178Z,98288.38
2022-09-18T22:06:55.337Z,98303.00
2022-09-18T22:09:24.388Z,98289.06
2022-09-18T22:11:51.898Z,98303.81
2022-09-18T22:14:25.381Z,98296.69
2022-09-18T22:16:53.699Z,98302.81
2022-09-18T22:19:20.620Z,98290.69
2022-09-18T22:21:49.748Z,98310.41
2022-09-18T22:24:19.218Z,98309.41
2022-09-18T22:27:00.757Z,98306.44
2022-09-18T22:29:30.356Z,98287.66
2022-09-18T22:31:57.887Z,98314.19
2022-09-18T22:34:26.910Z,98322.34
2022-09-18T22:36:53.947Z,98311.00
2022-09-18T22:39:21.742Z,98316.28
2022-09-18T22:41:49.317Z,98322.88
2022-09-18T22:44:16.193Z,98325.06
2022-09-18T22:46:45.058Z,98315.94
2022-09-18T22:49:16.895Z,98310.66
2022-09-18T22:51:44.760Z,98310.97
2022-09-18T22:54:12.758Z,98312.31
2022-09-18T22:56:42.629Z,98315.47
2022-09-18T22:59:11.577Z,98314.63
2022-09-18T23:01:51.085Z,98322.09
2022-09-18T23:04:24.037Z,98326.06
2022-09-18T23:06:51.145Z,98311.00
2022-09-18T23:09:19.236Z,98320.78
2022-09-18T23:11:48.460Z,98323.53
2022-09-18T23:14:18.416Z,98323.06
2022-09-18T23:16:45.370Z,98320.69
2022-09-18T23:19:18.284Z,98321.53
2022-09-18T23:21:44.984Z,98325.47
2022-09-18T23:24:12.386Z,98315.19
2022-09-18T23:26:41.238Z,98321.13
2022-09-18T23:29:10.383Z,98326.09
2022-09-18T23:31:39.712Z,98316.59
2022-09-18T23:34:10.781Z,98316.94
2022-09-18T23:36:40.242Z,98314.59
2022-09-18T23:39:10.941Z,98299.31
2022-09-18T23:41:38.293Z,98311.47
2022-09-18T23:44:07.435Z,98320.28
2022-09-18T23:46:34.281Z,98314.75
2022-09-18T23:49:01.284Z,98323.19
2022-09-18T23:51:33.148Z,98318.22
2022-09-18T23:54:02.020Z,98328.75
2022-09-18T23:56:31.226Z,98323.47
2022-09-18T23:59:00.716Z,98325.91
